Time;durP1;ratioP1;P1;durP2;ratioP2;P2;SDS_P1;SDS_P2;PMS_P1;PMS_P2;Temp;Humidity;BMP_temperature;BMP_pressure;BME280_temperature;BME280_humidity;BME280_pressure;Samples;Min_cycle;Max_cycle;Signal;HPM_P1;HPM_P2
2021/12/14 00:00:29;;;;;;;18.08;16.38;;;;;;;6.83;78.63;99682.31;4187752;28;20273;-48
2021/12/14 00:02:30;;;;;;;19.55;17.63;;;;;;;6.87;78.64;99686.31;4157937;28;20678;-49
2021/12/14 00:04:33;;;;;;;18.17;16.63;;;;;;;6.90;78.53;99677.78;4158391;28;20311;-48
2021/12/14 00:06:38;;;;;;;17.25;14.93;;;;;;;6.87;78.61;99689.03;4155110;28;20201;-48
2021/12/14 00:08:49;;;;;;;14.30;12.98;;;;;;;6.93;78.58;99682.81;4186807;28;21048;-49
2021/12/14 00:11:24;;;;;;;12.77;11.80;;;;;;;7.06;78.19;99688.34;4156501;28;20220;-49
2021/12/14 00:13:44;;;;;;;12.15;11.15;;;;;;;7.03;78.35;99683.31;4156697;28;20209;-50
2021/12/14 00:15:46;;;;;;;14.75;11.52;;;;;;;6.93;78.58;99682.81;4157355;28;20279;-49
2021/12/14 00:17:54;;;;;;;10.60;9.60;;;;;;;6.88;78.84;99671.69;4175185;28;20208;-49
2021/12/14 00:19:58;;;;;;;9.75;8.85;;;;;;;6.89;78.88;99682.34;4171994;28;20204;-49
2021/12/14 00:22:16;;;;;;;7.13;6.60;;;;;;;6.86;78.90;99681.91;4159460;28;20240;-49
2021/12/14 00:24:26;;;;;;;9.90;9.20;;;;;;;6.82;79.16;99691.53;4155363;28;20980;-51
2021/12/14 00:26:27;;;;;;;11.48;10.48;;;;;;;6.83;79.08;99687.75;4153506;28;20263;-49
2021/12/14 00:28:33;;;;;;;13.65;12.60;;;;;;;6.88;79.11;99699.72;4155581;28;20593;-51
2021/12/14 00:30:36;;;;;;;11.25;10.35;;;;;;;6.82;79.15;99705.13;4170237;28;20254;-50
2021/12/14 00:32:38;;;;;;;8.52;7.90;;;;;;;6.97;78.00;99693.09;4171853;28;20244;-52
2021/12/14 00:34:42;;;;;;;8.82;8.13;;;;;;;7.08;77.51;99691.72;4186226;28;20227;-52
2021/12/14 00:36:44;;;;;;;5.90;5.40;;;;;;;7.05;76.70;99690.25;4154253;28;20288;-52
2021/12/14 00:38:48;;;;;;;5.95;5.55;;;;;;;7.10;76.59;99676.03;4171359;28;20207;-50
2021/12/14 00:40:56;;;;;;;6.45;5.97;;;;;;;7.18;76.04;99681.31;4172997;28;20258;-51
2021/12/14 00:42:59;;;;;;;6.80;6.40;;;;;;;7.21;75.89;99675.47;4156581;28;20219;-50
2021/12/14 00:45:01;;;;;;;7.30;6.88;;;;;;;7.16;76.02;99678.78;4153906;28;20229;-50
2021/12/14 00:47:03;;;;;;;6.82;6.43;;;;;;;7.22;76.26;99672.53;4155832;28;20594;-51
2021/12/14 00:49:09;;;;;;;7.40;6.90;;;;;;;7.12;76.66;99674.78;4158106;28;20359;-49
2021/12/14 00:51:12;;;;;;;7.80;7.20;;;;;;;7.17;76.44;99668.75;4168657;28;20242;-51
2021/12/14 00:53:14;;;;;;;8.05;7.45;;;;;;;7.05;77.03;99675.78;4189086;28;20227;-51
2021/12/14 00:55:20;;;;;;;8.02;7.43;;;;;;;7.10;76.54;99668.69;4170407;28;20232;-50
2021/12/14 00:57:22;;;;;;;8.88;8.18;;;;;;;7.10;76.16;99667.88;4156814;28;20232;-49
2021/12/14 00:59:25;;;;;;;9.52;8.82;;;;;;;7.08;76.72;99670.78;4171257;28;20661;-52
2021/12/14 01:01:33;;;;;;;12.55;11.50;;;;;;;7.08;76.23;99665.34;4171681;28;20761;-51
2021/12/14 01:03:37;;;;;;;9.60;8.90;;;;;;;7.07;76.61;99668.25;4187007;28;20256;-50
2021/12/14 01:05:43;;;;;;;9.05;8.35;;;;;;;7.04;76.61;99660.50;4168956;28;20200;-52
2021/12/14 01:07:44;;;;;;;9.82;8.95;;;;;;;7.04;76.62;99669.50;4189524;28;20214;-50
2021/12/14 01:09:50;;;;;;;9.02;8.40;;;;;;;7.13;76.72;99667.44;4156492;28;21180;-50
2021/12/14 01:11:52;;;;;;;7.45;6.85;;;;;;;7.00;76.66;99668.22;4168281;28;20331;-53
2021/12/14 01:14:02;;;;;;;8.43;7.82;;;;;;;7.00;77.03;99673.66;4157057;28;20671;-49
2021/12/14 01:16:30;;;;;;;8.65;8.02;;;;;;;6.98;77.00;99672.16;4190281;28;20311;-51
2021/12/14 01:20:50;;;;;;;9.90;9.02;;;;;;;6.98;76.93;99680.34;4156489;28;20211;-49
2021/12/14 01:22:59;;;;;;;9.35;8.65;;;;;;;6.97;77.40;99673.22;4171633;28;20199;-49
2021/12/14 01:25:24;;;;;;;8.38;7.85;;;;;;;6.96;76.94;99676.97;4170759;28;20767;-50
2021/12/14 01:27:49;;;;;;;9.25;8.65;;;;;;;6.97;77.41;99678.66;4169162;28;20227;-50
2021/12/14 01:29:54;;;;;;;10.00;9.30;;;;;;;6.97;77.31;99684.09;4168991;28;20207;-52
2021/12/14 01:32:00;;;;;;;12.13;11.23;;;;;;;6.97;77.08;99684.09;4158556;28;20205;-49
2021/12/14 01:34:08;;;;;;;9.93;9.23;;;;;;;6.97;77.52;99684.09;4155332;28;20261;-49
2021/12/14 01:36:24;;;;;;;9.68;8.98;;;;;;;6.96;77.47;99687.88;4183026;28;20257;-50
2021/12/14 01:40:53;;;;;;;9.73;9.02;;;;;;;7.06;77.33;99685.63;4157058;28;20701;-50
2021/12/14 01:42:56;;;;;;;9.38;8.57;;;;;;;6.98;77.14;99683.91;4154926;28;20205;-50
2021/12/14 01:45:12;;;;;;;8.60;7.90;;;;;;;6.95;77.23;99691.63;4157174;28;20228;-50
2021/12/14 01:47:24;;;;;;;10.55;9.82;;;;;;;7.04;77.01;99685.84;4157450;28;20231;-49
2021/12/14 01:49:28;;;;;;;8.40;7.82;;;;;;;6.98;76.75;99685.78;4155919;28;20741;-50
2021/12/14 01:51:30;;;;;;;10.20;9.55;;;;;;;6.97;76.95;99694.97;4156281;28;20224;-52
2021/12/14 01:53:33;;;;;;;11.02;10.23;;;;;;;6.96;76.93;99687.88;4154376;28;20236;-50
2021/12/14 01:55:38;;;;;;;10.63;9.82;;;;;;;7.02;76.98;99687.91;4157918;28;20205;-49
2021/12/14 01:57:40;;;;;;;10.43;9.60;;;;;;;7.05;76.87;99686.66;4169708;28;20279;-51
2021/12/14 01:59:45;;;;;;;11.05;10.05;;;;;;;7.03;77.31;99688.75;4153232;28;20201;-50
2021/12/14 02:01:55;;;;;;;10.45;9.75;;;;;;;7.02;77.12;99692.50;4171266;28;20245;-50
2021/12/14 02:04:00;;;;;;;10.60;9.82;;;;;;;6.95;77.02;99691.63;4167869;28;20299;-50
2021/12/14 02:06:04;;;;;;;11.48;10.75;;;;;;;6.91;77.42;99691.19;4155074;28;20687;-51
2021/12/14 02:08:15;;;;;;;11.05;10.15;;;;;;;6.91;77.49;99715.66;4170486;28;20594;-50
2021/12/14 02:10:30;;;;;;;11.38;10.43;;;;;;;6.92;77.03;99708.34;4155672;28;20232;-50
2021/12/14 02:12:32;;;;;;;12.35;11.45;;;;;;;7.04;77.01;99706.75;4160331;28;20306;-50
2021/12/14 02:14:34;;;;;;;11.98;10.93;;;;;;;7.01;76.92;99696.25;4189360;28;20219;-52
2021/12/14 02:16:36;;;;;;;12.13;11.25;;;;;;;7.01;76.91;99697.09;4156875;28;20265;-52
2021/12/14 02:18:43;;;;;;;10.57;9.82;;;;;;;7.01;76.73;99696.25;4192350;28;20290;-51
2021/12/14 02:20:59;;;;;;;10.38;9.48;;;;;;;7.19;76.42;99693.88;4158340;28;20300;-52
2021/12/14 02:23:01;;;;;;;9.98;9.27;;;;;;;7.15;76.12;99687.16;4169331;28;20675;-50
2021/12/14 02:25:05;;;;;;;12.25;11.35;;;;;;;6.95;77.00;99699.78;4168250;28;20225;-49
2021/12/14 02:27:06;;;;;;;11.40;10.27;;;;;;;6.94;77.09;99722.56;4170096;28;20274;-51
2021/12/14 02:29:10;;;;;;;11.88;11.05;;;;;;;7.04;76.75;99728.53;4170458;28;20240;-52
2021/12/14 02:31:17;;;;;;;12.48;11.68;;;;;;;6.94;76.82;99725.28;4155196;28;20259;-51
2021/12/14 02:33:24;;;;;;;15.50;14.45;;;;;;;6.91;77.19;99740.16;4155360;28;20780;-50
2021/12/14 02:35:27;;;;;;;13.90;13.00;;;;;;;6.95;76.98;99725.09;4169672;28;20262;-51
2021/12/14 02:37:40;;;;;;;14.18;13.27;;;;;;;7.11;76.86;99723.97;4154079;28;20216;-52
2021/12/14 02:41:54;;;;;;;11.05;10.15;;;;;;;7.03;76.75;99688.75;4174909;28;20248;-51
2021/12/14 02:43:57;;;;;;;12.48;11.57;;;;;;;6.95;76.91;99691.63;4156730;28;20252;-51
2021/12/14 02:46:11;;;;;;;13.10;12.10;;;;;;;6.88;77.33;99710.59;4156476;28;20581;-49
2021/12/14 02:48:13;;;;;;;12.48;11.65;;;;;;;6.94;77.12;99715.25;4193289;28;20220;-51
2021/12/14 02:50:15;;;;;;;12.15;11.30;;;;;;;7.07;76.52;99700.91;4157783;28;20197;-50
2021/12/14 02:52:27;;;;;;;9.88;9.18;;;;;;;6.93;77.38;99688.25;4158382;28;20822;-49
2021/12/14 02:54:52;;;;;;;12.45;11.65;;;;;;;6.90;77.03;99699.53;4169390;28;20286;-50
2021/12/14 02:56:57;;;;;;;11.65;10.85;;;;;;;6.84;77.33;99708.47;4186712;28;20211;-50
2021/12/14 02:59:11;;;;;;;9.05;8.38;;;;;;;6.81;77.60;99696.13;4159166;28;20197;-49
2021/12/14 03:01:16;;;;;;;11.73;10.43;;;;;;;6.77;77.48;99689.38;4161763;28;20778;-49
2021/12/14 03:03:19;;;;;;;12.02;10.88;;;;;;;6.81;77.37;99685.22;4192224;28;20199;-49
2021/12/14 03:05:27;;;;;;;11.27;10.57;;;;;;;6.93;77.34;99688.25;4189129;28;20273;-49
2021/12/14 03:07:38;;;;;;;10.93;10.02;;;;;;;6.95;77.02;99675.31;4159286;28;20200;-50
2021/12/14 03:09:56;;;;;;;9.55;8.82;;;;;;;6.83;77.11;99682.31;4177598;28;20709;-50
2021/12/14 03:12:01;;;;;;;10.90;10.20;;;;;;;6.82;77.24;99676.03;4158722;28;20204;-51
2021/12/14 03:14:04;;;;;;;10.70;10.00;;;;;;;6.89;77.37;99670.66;4168519;28;20263;-50
2021/12/14 03:16:10;;;;;;;11.32;10.48;;;;;;;6.91;77.23;99672.13;4189131;28;20301;-51
2021/12/14 03:18:14;;;;;;;11.18;10.48;;;;;;;6.83;77.09;99674.16;4169745;28;20200;-50
2021/12/14 03:20:28;;;;;;;11.52;10.73;;;;;;;6.91;76.86;99663.13;4168289;28;20636;-50
2021/12/14 03:22:36;;;;;;;10.35;9.65;;;;;;;6.86;77.02;99673.75;4154813;28;20291;-51
2021/12/14 03:24:39;;;;;;;11.50;10.60;;;;;;;6.98;76.62;99669.44;4158941;28;20224;-50
2021/12/14 03:26:44;;;;;;;10.82;10.07;;;;;;;6.91;76.68;99674.00;4156851;28;20208;-50
2021/12/14 03:28:49;;;;;;;11.50;10.70;;;;;;;6.98;76.76;99658.56;4156279;28;20224;-49
2021/12/14 03:31:10;;;;;;;12.65;11.75;;;;;;;6.83;77.11;99676.88;4189604;28;21187;-49
2021/12/14 03:33:18;;;;;;;12.02;11.23;;;;;;;6.79;77.14;99678.31;4170417;28;20197;-51
2021/12/14 03:35:20;;;;;;;10.60;9.80;;;;;;;6.82;77.20;99680.66;4158398;28;20232;-51
2021/12/14 03:37:23;;;;;;;10.05;9.40;;;;;;;6.83;77.55;99682.31;4160482;28;20215;-49
2021/12/14 03:39:32;;;;;;;10.93;10.20;;;;;;;6.89;77.26;99673.38;4155661;28;20212;-49
2021/12/14 03:41:46;;;;;;;10.98;9.98;;;;;;;6.90;77.29;99662.28;4172227;28;20196;-50
2021/12/14 03:44:00;;;;;;;11.93;11.02;;;;;;;6.79;77.32;99670.16;4157086;28;20367;-50
2021/12/14 03:46:02;;;;;;;13.00;12.00;;;;;;;6.82;77.16;99669.75;4155819;28;20677;-49
2021/12/14 03:48:04;;;;;;;12.88;11.88;;;;;;;6.89;77.39;99670.66;4156308;28;20668;-51
2021/12/14 03:50:11;;;;;;;11.73;10.93;;;;;;;6.92;76.76;99675.69;4173615;28;20327;-49
2021/12/14 03:52:16;;;;;;;12.18;11.35;;;;;;;6.77;77.48;99678.50;4171423;28;20200;-49
2021/12/14 03:54:19;;;;;;;10.88;10.07;;;;;;;6.82;77.17;99686.91;4156126;28;20224;-49
2021/12/14 03:56:21;;;;;;;10.40;9.65;;;;;;;6.90;77.17;99678.59;4156725;28;20646;-49
2021/12/14 03:58:30;;;;;;;10.35;9.63;;;;;;;6.92;76.80;99681.13;4171282;28;20251;-49
2021/12/14 04:00:37;;;;;;;13.30;11.18;;;;;;;6.85;77.25;99691.97;4188316;28;20214;-49
2021/12/14 04:02:39;;;;;;;10.85;9.93;;;;;;;6.77;77.65;99678.50;4159733;28;20228;-49
2021/12/14 04:04:47;;;;;;;10.60;9.80;;;;;;;6.72;77.66;99680.13;4156522;28;20232;-48
2021/12/14 04:06:52;;;;;;;12.20;11.35;;;;;;;6.69;77.78;99669.66;4172704;28;20226;-49
2021/12/14 04:08:54;;;;;;;11.50;10.73;;;;;;;6.68;77.82;99674.25;4170946;28;20216;-50
2021/12/14 04:10:58;;;;;;;13.23;12.32;;;;;;;6.79;77.72;99686.47;4157133;28;20235;-50
2021/12/14 04:13:00;;;;;;;11.63;10.82;;;;;;;6.85;77.32;99669.34;4174415;28;20212;-50
2021/12/14 04:15:04;;;;;;;11.32;10.52;;;;;;;6.74;77.58;99664.44;4190521;28;20227;-49
2021/12/14 04:17:05;;;;;;;10.90;10.23;;;;;;;6.75;77.34;99647.13;4157616;28;20236;-49
2021/12/14 04:19:11;;;;;;;11.82;10.93;;;;;;;6.76;77.39;99648.78;4155247;28;20236;-49
2021/12/14 04:21:13;;;;;;;13.13;11.88;;;;;;;6.70;77.91;99649.59;4170850;28;20205;-51
2021/12/14 04:23:22;;;;;;;12.90;12.00;;;;;;;6.66;77.88;99637.41;4157726;28;20643;-50
2021/12/14 04:25:28;;;;;;;13.77;12.77;;;;;;;6.62;78.04;99647.00;4185418;28;20265;-51
2021/12/14 04:27:31;;;;;;;14.77;13.68;;;;;;;6.60;78.14;99654.50;4191715;28;20200;-49
2021/12/14 04:29:34;;;;;;;13.80;12.52;;;;;;;6.65;78.02;99660.19;4175250;28;20228;-50
2021/12/14 04:31:36;;;;;;;14.18;13.23;;;;;;;6.66;78.15;99654.56;4190103;28;20204;-51
2021/12/14 04:33:41;;;;;;;13.00;12.10;;;;;;;6.67;78.24;99647.25;4189531;28;20226;-50
2021/12/14 04:35:44;;;;;;;13.60;12.48;;;;;;;6.63;77.84;99635.91;4172163;28;21725;-49
2021/12/14 04:37:53;;;;;;;12.52;11.63;;;;;;;6.76;77.57;99632.47;4157129;28;20216;-49
2021/12/14 04:40:16;;;;;;;12.13;11.23;;;;;;;6.71;77.56;99634.94;4160568;28;20200;-50
2021/12/14 04:52:01;;;;;;;14.07;13.07;;;;;;;6.50;78.31;99626.84;4183848;28;20727;-49
2021/12/14 04:54:03;;;;;;;12.75;11.80;;;;;;;6.56;78.13;99623.31;4155380;28;21016;-50
2021/12/14 04:56:10;;;;;;;11.93;11.13;;;;;;;6.54;78.40;99623.50;4157487;28;20240;-49
2021/12/14 04:58:12;;;;;;;15.35;14.15;;;;;;;6.57;78.27;99622.28;4138347;28;20681;-50
2021/12/14 05:00:25;;;;;;;13.95;12.85;;;;;;;6.60;78.17;99614.56;4156974;28;20200;-49
2021/12/14 05:02:31;;;;;;;12.93;11.95;;;;;;;6.53;78.54;99612.81;4157411;28;20193;-49
2021/12/14 05:04:33;;;;;;;13.77;12.75;;;;;;;6.49;78.64;99614.28;4172462;28;20253;-49
2021/12/14 05:06:48;;;;;;;14.40;13.23;;;;;;;6.51;78.70;99595.88;4157722;28;20213;-50
2021/12/14 05:11:03;;;;;;;13.35;12.32;;;;;;;6.48;78.86;99618.03;4156968;28;20867;-49
2021/12/14 05:13:04;;;;;;;15.95;14.57;;;;;;;6.56;78.63;99604.28;4171945;28;20641;-51
2021/12/14 05:15:09;;;;;;;15.57;14.48;;;;;;;6.56;78.41;99612.44;4154765;28;20687;-50
2021/12/14 05:17:15;;;;;;;14.90;13.60;;;;;;;6.47;78.77;99605.47;4187448;28;20586;-51
2021/12/14 05:19:16;;;;;;;15.55;14.45;;;;;;;6.51;78.88;99582.28;4153807;28;20233;-50
2021/12/14 05:21:32;;;;;;;14.98;13.88;;;;;;;6.58;78.19;99572.28;4167492;28;20215;-51
2021/12/14 05:23:36;;;;;;;13.38;12.48;;;;;;;6.48;78.57;99572.66;4154819;28;20200;-51
2021/12/14 05:25:38;;;;;;;13.63;12.52;;;;;;;6.46;78.82;99576.59;4157972;28;20617;-48
2021/12/14 05:27:47;;;;;;;13.77;12.77;;;;;;;6.36;79.05;99562.53;4158924;28;21031;-50
2021/12/14 05:29:49;;;;;;;13.55;12.45;;;;;;;6.39;78.91;99565.69;4156948;28;20263;-51
2021/12/14 05:31:51;;;;;;;13.35;12.25;;;;;;;6.38;79.00;99571.31;4153971;28;20686;-48
2021/12/14 05:33:53;;;;;;;14.40;13.20;;;;;;;6.38;78.90;99577.59;4156180;28;20250;-50
2021/12/14 05:35:57;;;;;;;14.18;12.90;;;;;;;6.30;79.18;99560.59;4172909;28;20223;-49
2021/12/14 05:38:00;;;;;;;14.88;12.57;;;;;;;6.39;79.17;99565.69;4169520;28;20261;-50
2021/12/14 05:40:06;;;;;;;13.00;12.00;;;;;;;6.37;79.24;99562.31;4158340;28;20200;-50
2021/12/14 05:44:14;;;;;;;14.07;13.00;;;;;;;6.36;79.09;99571.50;4156808;28;20228;-48
2021/12/14 05:46:20;;;;;;;13.25;12.30;;;;;;;6.28;79.17;99563.50;4184970;28;20273;-51
2021/12/14 05:48:25;;;;;;;14.70;13.32;;;;;;;6.39;79.18;99568.41;4170796;28;20628;-51
2021/12/14 05:50:31;;;;;;;13.85;12.85;;;;;;;6.27;79.31;99550.94;4156260;28;20248;-50
2021/12/14 05:52:32;;;;;;;13.60;12.52;;;;;;;6.25;79.12;99563.91;4172138;28;20223;-49
2021/12/14 05:54:35;;;;;;;15.38;14.18;;;;;;;6.26;79.32;99579.16;4167501;28;20259;-50
2021/12/14 05:56:37;;;;;;;14.18;13.18;;;;;;;6.26;79.72;99581.91;4183791;28;20239;-53
2021/12/14 05:58:39;;;;;;;15.27;14.07;;;;;;;6.31;79.53;99594.88;4180995;28;20211;-52
2021/12/14 06:00:44;;;;;;;14.05;12.85;;;;;;;6.41;79.13;99603.53;4167483;28;20200;-52
2021/12/14 06:02:47;;;;;;;15.60;14.50;;;;;;;6.33;79.07;99607.25;4155303;28;20283;-51
2021/12/14 06:04:51;;;;;;;14.60;13.60;;;;;;;6.42;79.17;99607.94;4157663;28;20317;-51
2021/12/14 06:06:55;;;;;;;12.63;11.63;;;;;;;6.36;79.31;99611.44;4150702;28;20559;-51
2021/12/14 06:09:08;;;;;;;13.98;12.88;;;;;;;6.41;79.29;99603.53;4165549;28;20239;-51
2021/12/14 06:11:21;;;;;;;13.25;12.23;;;;;;;6.35;79.05;99596.19;4162127;28;20253;-49
2021/12/14 06:13:43;;;;;;;12.25;11.35;;;;;;;6.39;79.16;99602.88;4160191;28;20211;-54
2021/12/14 06:15:45;;;;;;;13.38;12.40;;;;;;;6.40;79.17;99604.56;4184535;28;20195;-48
2021/12/14 06:17:48;;;;;;;13.20;12.20;;;;;;;6.39;79.21;99602.88;4156850;28;20212;-48
2021/12/14 06:19:54;;;;;;;13.32;12.15;;;;;;;6.34;79.31;99608.06;4188421;28;20203;-49
2021/12/14 06:22:09;;;;;;;13.90;12.75;;;;;;;6.45;78.93;99615.69;4187482;28;20227;-49
2021/12/14 06:24:11;;;;;;;14.25;12.95;;;;;;;6.38;78.95;99629.25;4187952;28;20766;-49
2021/12/14 06:26:15;;;;;;;15.02;13.93;;;;;;;6.43;78.41;99636.81;4175051;28;20259;-48
2021/12/14 06:28:29;;;;;;;13.98;12.82;;;;;;;6.40;78.61;99626.31;4169244;28;20204;-48
2021/12/14 06:30:33;;;;;;;16.10;14.80;;;;;;;6.31;78.99;99622.06;4169233;28;20219;-48
2021/12/14 06:32:57;;;;;;;15.63;14.32;;;;;;;6.19;79.23;99613.59;4140273;28;20658;-50
2021/12/14 06:35:20;;;;;;;15.82;14.43;;;;;;;6.29;79.01;99600.50;4158982;28;20259;-48
2021/12/14 06:40:27;;;;;;;14.68;13.38;;;;;;;6.30;79.30;99604.91;4154993;28;20245;-49
2021/12/14 06:42:31;;;;;;;14.20;13.05;;;;;;;6.30;79.37;99615.78;4155373;28;20204;-49
2021/12/14 06:44:33;;;;;;;14.75;13.45;;;;;;;6.33;78.64;99612.69;4174778;28;20306;-49
2021/12/14 06:46:38;;;;;;;12.88;11.65;;;;;;;6.19;79.43;99615.47;4160861;28;20671;-49
2021/12/14 06:48:55;;;;;;;14.52;13.30;;;;;;;6.18;79.37;99621.94;4158597;28;20688;-49
2021/12/14 06:51:01;;;;;;;15.13;13.73;;;;;;;6.32;79.13;99640.06;4153525;28;20212;-49
2021/12/14 06:53:14;;;;;;;13.55;12.43;;;;;;;6.27;78.81;99631.63;4187697;28;20290;-49
2021/12/14 06:55:24;;;;;;;13.20;11.90;;;;;;;6.25;79.02;99628.28;4174483;28;20697;-50
2021/12/14 06:57:36;;;;;;;14.45;13.07;;;;;;;6.17;79.20;99631.13;4188477;28;20677;-50
2021/12/14 06:59:38;;;;;;;11.93;10.82;;;;;;;6.21;79.22;99648.72;4175530;28;20200;-48
2021/12/14 07:02:00;;;;;;;12.25;10.98;;;;;;;6.25;79.41;99655.47;4157744;28;20201;-49
2021/12/14 07:04:27;;;;;;;12.75;11.48;;;;;;;6.18;78.99;99638.25;4171374;28;20231;-50
2021/12/14 07:06:50;;;;;;;12.15;11.07;;;;;;;6.10;79.38;99649.25;4154394;28;20213;-49
2021/12/14 07:08:53;;;;;;;12.05;10.95;;;;;;;6.09;79.14;99642.16;4175897;28;20632;-50
2021/12/14 07:10:55;;;;;;;11.38;9.95;;;;;;;6.10;78.92;99641.09;4189471;28;20233;-49
2021/12/14 07:12:57;;;;;;;10.63;9.68;;;;;;;6.09;79.01;99623.94;4158205;28;20580;-49
2021/12/14 07:15:10;;;;;;;14.23;11.23;;;;;;;6.01;79.08;99628.66;4161388;28;20232;-51
2021/12/14 07:17:26;;;;;;;12.95;10.10;;;;;;;6.02;79.15;99635.81;4162015;28;20193;-49
2021/12/14 07:19:47;;;;;;;13.02;11.82;;;;;;;6.00;79.03;99629.69;4160608;28;20201;-51
2021/12/14 07:22:01;;;;;;;12.77;11.50;;;;;;;5.96;79.44;99633.88;4163008;28;20577;-48
2021/12/14 07:24:25;;;;;;;9.52;8.68;;;;;;;6.02;79.39;99641.25;4174678;28;20640;-49
2021/12/14 07:26:27;;;;;;;11.80;10.60;;;;;;;6.09;79.16;99645.69;4172393;28;20730;-49
2021/12/14 07:28:46;;;;;;;10.30;9.40;;;;;;;6.12;79.42;99639.03;4161347;28;20209;-50
2021/12/14 07:30:54;;;;;;;12.45;11.15;;;;;;;6.02;78.96;99654.81;4160401;28;20212;-50
2021/12/14 07:33:02;;;;;;;10.65;9.55;;;;;;;6.04;79.33;99658.19;4157162;28;20208;-48
2021/12/14 07:35:14;;;;;;;10.43;9.40;;;;;;;6.08;79.17;99664.91;4157379;28;20882;-48
2021/12/14 07:37:16;;;;;;;11.73;10.52;;;;;;;6.13;78.39;99662.44;4174591;28;20259;-50
2021/12/14 07:39:21;;;;;;;12.35;11.10;;;;;;;6.08;78.81;99665.75;4159417;28;20696;-49
2021/12/14 07:41:40;;;;;;;9.95;8.95;;;;;;;6.05;78.66;99663.44;4160383;28;20247;-49
2021/12/14 07:43:58;;;;;;;12.68;11.38;;;;;;;6.04;79.05;99674.47;4163290;28;20196;-48
2021/12/14 07:46:00;;;;;;;10.25;9.10;;;;;;;6.02;78.88;99682.00;4188750;28;20277;-49
2021/12/14 07:48:02;;;;;;;10.23;8.88;;;;;;;6.08;78.91;99681.22;4176783;28;20218;-49
2021/12/14 07:50:06;;;;;;;11.98;10.80;;;;;;;6.03;78.98;99672.81;4191639;28;20306;-55
2021/12/14 07:52:35;;;;;;;12.90;10.70;;;;;;;6.12;78.79;99683.34;4160378;28;20208;-49
2021/12/14 07:54:55;;;;;;;9.40;8.32;;;;;;;6.06;78.64;99683.28;4160042;28;20224;-49
2021/12/14 07:57:16;;;;;;;12.70;11.48;;;;;;;6.07;78.66;99682.22;4179477;28;20203;-49
2021/12/14 07:59:35;;;;;;;11.35;10.27;;;;;;;6.04;78.67;99685.34;4189439;28;20653;-49
2021/12/14 08:01:46;;;;;;;10.10;9.25;;;;;;;6.06;78.52;99683.28;4191730;28;20218;-49
2021/12/14 08:04:14;;;;;;;11.73;10.63;;;;;;;6.17;77.93;99696.34;4177610;28;20589;-51
2021/12/14 08:06:51;;;;;;;10.48;9.38;;;;;;;6.07;78.47;99693.09;4173078;28;20208;-50
2021/12/14 08:08:55;;;;;;;11.27;10.18;;;;;;;6.08;78.22;99692.09;4159310;28;20240;-50
2021/12/14 08:13:50;;;;;;;11.93;10.82;;;;;;;6.05;78.22;99689.75;4165662;28;20205;-54
2021/12/14 08:16:00;;;;;;;10.23;9.32;;;;;;;6.08;78.36;99700.25;4189831;28;20207;-52
2021/12/14 08:18:23;;;;;;;12.68;11.38;;;;;;;5.94;78.00;99698.38;4161242;28;20220;-50
2021/12/14 08:20:47;;;;;;;10.65;9.68;;;;;;;5.95;78.40;99700.09;4159472;28;20189;-50
2021/12/14 08:23:10;;;;;;;10.43;9.52;;;;;;;6.00;78.13;99703.91;4176048;28;20640;-50
2021/12/14 08:25:14;;;;;;;12.65;11.45;;;;;;;6.05;77.64;99714.19;4189217;28;20601;-51
2021/12/14 08:27:27;;;;;;;11.55;10.45;;;;;;;5.92;77.88;99714.91;4161185;28;20224;-50
2021/12/14 08:29:38;;;;;;;11.25;10.27;;;;;;;5.91;78.71;99718.66;4194101;28;20583;-50
2021/12/14 08:31:47;;;;;;;11.23;10.07;;;;;;;6.09;78.18;99715.50;4158445;28;20204;-48
2021/12/14 08:34:26;;;;;;;13.13;10.45;;;;;;;6.10;78.03;99706.31;4189297;28;20238;-48
2021/12/14 08:36:47;;;;;;;13.27;10.82;;;;;;;6.04;78.03;99718.78;4173069;28;20861;-50
2021/12/14 08:39:16;;;;;;;12.63;11.43;;;;;;;5.88;77.78;99712.75;4160114;28;20208;-50
2021/12/14 08:41:23;;;;;;;12.65;11.35;;;;;;;6.01;78.16;99719.19;4159927;28;20225;-49
2021/12/14 08:43:47;;;;;;;12.30;11.05;;;;;;;5.99;78.23;99715.81;4177004;28;20215;-49
2021/12/14 08:46:09;;;;;;;13.05;11.88;;;;;;;5.90;77.92;99710.69;4162669;28;20768;-48
2021/12/14 08:48:31;;;;;;;13.82;12.50;;;;;;;6.00;77.48;99716.63;4173879;28;20208;-49
2021/12/14 08:50:59;;;;;;;15.18;13.80;;;;;;;5.93;77.70;99711.16;4159748;28;20229;-49
2021/12/14 08:53:00;;;;;;;23.42;13.85;;;;;;;5.93;77.77;99715.72;4162005;28;20204;-50
2021/12/14 08:55:06;;;;;;;13.63;12.43;;;;;;;5.91;78.01;99713.22;4163413;28;20237;-49
2021/12/14 08:57:23;;;;;;;13.95;12.52;;;;;;;5.93;77.86;99713.84;4159935;28;20287;-50
2021/12/14 08:59:27;;;;;;;13.98;12.27;;;;;;;5.95;77.40;99713.69;4161659;28;20674;-48
2021/12/14 09:01:40;;;;;;;13.55;12.25;;;;;;;6.09;77.32;99720.94;4161986;28;20251;-49
2021/12/14 09:03:54;;;;;;;13.75;12.55;;;;;;;6.04;77.90;99729.63;4159252;28;20205;-49
2021/12/14 09:05:56;;;;;;;12.73;11.40;;;;;;;5.96;77.69;99718.91;4155968;28;20231;-49
2021/12/14 09:07:58;;;;;;;12.95;10.02;;;;;;;6.05;77.57;99730.50;4171535;28;20255;-49
2021/12/14 09:10:09;;;;;;;11.55;10.50;;;;;;;6.05;77.24;99715.06;4159874;28;20209;-48
2021/12/14 09:12:32;;;;;;;11.20;10.20;;;;;;;5.73;77.09;99706.47;4190389;28;20199;-49
2021/12/14 09:14:35;;;;;;;11.23;10.23;;;;;;;5.71;76.92;99700.38;4154931;28;20228;-48
2021/12/14 09:16:37;;;;;;;10.73;9.70;;;;;;;5.64;78.07;99699.47;4173815;28;20206;-49
2021/12/14 09:18:45;;;;;;;11.02;9.90;;;;;;;5.67;77.88;99709.94;4159008;28;20213;-49
2021/12/14 09:20:57;;;;;;;11.20;9.77;;;;;;;5.83;78.01;99715.19;4173472;28;20246;-49
2021/12/14 09:23:14;;;;;;;10.73;9.80;;;;;;;5.89;78.00;99725.31;4191073;28;20229;-48
2021/12/14 09:25:26;;;;;;;12.50;11.30;;;;;;;5.98;78.11;99721.44;4187309;28;20857;-49
2021/12/14 09:28:01;;;;;;;10.98;9.98;;;;;;;6.10;77.54;99733.50;4161464;28;20218;-49
2021/12/14 09:30:15;;;;;;;9.20;8.30;;;;;;;6.09;77.14;99740.78;4159050;28;20204;-49
2021/12/14 09:32:36;;;;;;;9.90;9.00;;;;;;;6.05;77.31;99736.78;4189284;28;20206;-49
2021/12/14 09:34:40;;;;;;;11.55;10.45;;;;;;;6.11;77.70;99735.16;4157726;28;20666;-48
2021/12/14 09:36:47;;;;;;;10.35;9.00;;;;;;;6.15;77.30;99731.88;4161313;28;20216;-49
2021/12/14 09:38:56;;;;;;;9.55;8.52;;;;;;;6.19;77.55;99740.47;4153763;28;20299;-50
2021/12/14 09:41:02;;;;;;;10.02;9.18;;;;;;;6.19;76.82;99740.47;4189494;28;20557;-49
2021/12/14 09:43:08;;;;;;;11.90;10.55;;;;;;;6.20;77.27;99739.44;4176391;28;20242;-49
2021/12/14 09:45:16;;;;;;;11.00;9.93;;;;;;;6.16;77.05;99738.16;4172113;28;20339;-49
2021/12/14 09:47:25;;;;;;;11.40;10.35;;;;;;;6.18;77.16;99741.50;4160930;28;20279;-49
2021/12/14 09:49:39;;;;;;;13.45;12.15;;;;;;;6.24;77.08;99741.56;4158376;28;20210;-49
2021/12/14 09:51:49;;;;;;;13.50;12.23;;;;;;;6.30;76.85;99739.97;4158771;28;20657;-50
2021/12/14 09:54:12;;;;;;;10.27;9.38;;;;;;;6.26;76.75;99746.81;4171121;28;20277;-48
2021/12/14 09:56:37;;;;;;;12.55;11.40;;;;;;;6.26;76.71;99741.38;4185549;28;20204;-49
2021/12/14 09:58:59;;;;;;;12.90;11.68;;;;;;;6.26;76.51;99739.53;4160753;28;20290;-49
2021/12/14 10:01:04;;;;;;;11.38;10.45;;;;;;;6.33;76.55;99739.59;4160021;28;20207;-49
2021/12/14 10:03:10;;;;;;;11.95;10.85;;;;;;;6.34;76.77;99741.25;4190649;28;20266;-49
2021/12/14 10:05:41;;;;;;;11.38;10.35;;;;;;;6.27;76.91;99738.50;4176789;28;21192;-50
2021/12/14 10:07:43;;;;;;;10.82;9.77;;;;;;;6.23;76.38;99741.78;4159879;28;20208;-49
2021/12/14 10:09:47;;;;;;;9.77;8.93;;;;;;;6.21;76.30;99730.25;4160413;28;20205;-50
2021/12/14 10:12:49;;;;;;;11.48;10.27;;;;;;;6.25;76.48;99739.72;4158802;28;20203;-49
2021/12/14 10:15:16;;;;;;;8.45;7.68;;;;;;;6.37;75.56;99740.88;4163358;28;20684;-49
2021/12/14 10:17:22;;;;;;;10.95;10.05;;;;;;;6.31;75.80;99737.09;4162608;28;20643;-48
2021/12/14 10:19:40;;;;;;;10.88;9.77;;;;;;;6.28;76.26;99736.63;4194009;28;20199;-53
2021/12/14 10:22:06;;;;;;;10.20;9.30;;;;;;;6.36;76.00;99736.50;4162167;28;20209;-49
2021/12/14 10:24:09;;;;;;;14.45;10.30;;;;;;;6.40;76.16;99735.06;4160954;28;20587;-50
2021/12/14 10:26:11;;;;;;;10.15;9.15;;;;;;;6.34;75.78;99738.53;4160937;28;20231;-51
2021/12/14 10:28:17;;;;;;;10.18;9.38;;;;;;;6.46;75.49;99735.13;4157088;28;20213;-49
2021/12/14 10:30:44;;;;;;;10.90;10.00;;;;;;;6.33;76.22;99728.72;4158119;28;20205;-49